Terminal Aerodrome Forecast
Issued by NWS Charleston, WV

Current Version | Previous Version | Graphics & Text | Print | Product List | Glossary On
Versions: 1 2 3 4 5 6 7 8 9 10 11 12 13 14 15 16 17 18 19 20 21 22 23 24 25 26 27 28 29 30
000
FTUS41 KRLX 280000 AAA
TAFBKW
TAF AMD
KBKW 280059Z 2801/2824 32009KT 4SM -SN BKN025
      TEMPO 2801/2805 2SM -SN BKN015
     FM280500 32008KT P6SM BKN025
     FM281000 32009KT P6SM BKN020
     FM281400 32012G19KT P6SM BKN035
     FM281600 32013G22KT P6SM SKC
     FM282200 32009KT P6SM SKC=

USA.gov is the U.S. government's official web portal to all federal, state and local government web resources and services.